M I D A S
Marine Information and Data Acquisition System
Tripno 1187 of the Zeeleeuw from 2006-11-22 07:29:31 to 2006-11-22 16:52:26
Back to CruiseResearch ActivitiesStationsMapUnderway DataData graphs

EquipmentUnitsComment
TimeDGPSUTC
LatitudeDGPSDM.mWGS84
LongitudeDGPSDM.mWGS84
TemperatureSBE03/SBE38deg celciusITS90
ConductivitySBE21S/mITS90
SalinitySBE21 Practical Salinity Units
ChlorophylAChelsea fluorimeterg/lCalibrated in Aceton
Missing or incorrect values are displayed as -999
Sea surface data collected by the RV Zeeleeuw from 2006-11-22 07:19:05 to 2006-11-22 17:03:09
Time Latitude Longitude Temperature Conductivity Salinity ChlorophylA
2006-11-22 07:20:11 51°13.611 2°56.027 -999 3.078847 23.418235 -2.871232
2006-11-22 07:21:12 51°13.643 2°55.914 -999 2.651463 21.787968 -2.871232
2006-11-22 07:22:11 51°13.693 2°55.797 -999 2.626761 21.726106 -2.871232
2006-11-22 07:23:10 51°13.726 2°55.712 -999 2.655498 22.050923 -2.871232
2006-11-22 07:24:10 51°13.74 2°55.735 -999 2.620871 21.771376 -2.871232
2006-11-22 07:25:10 51°13.723 2°55.709 -999 2.694884 22.447875 -2.871232
2006-11-22 07:26:10 51°13.773 2°55.678 -999 2.876968 24.085949 -2.871232
2006-11-22 07:27:10 51°13.899 2°55.584 -999 2.620045 21.790726 -2.871232
2006-11-22 07:28:10 51°14.035 2°55.487 -999 2.480528 20.57507 -2.871232
2006-11-22 07:29:11 51°14.161 2°55.392 -999 2.414401 20.002351 -2.871232
2006-11-22 07:30:10 51°14.27 2°55.249 -999 2.327521 19.248435 -2.871232
2006-11-22 07:31:10 51°14.377 2°55.067 -999 2.213804 18.248213 -2.871232
2006-11-22 07:32:10 51°14.525 2°54.946 -999 2.783695 23.334537 -2.871232
2006-11-22 07:33:10 51°14.708 2°54.95 -999 3.255433 27.579962 -2.871232
2006-11-22 07:34:10 51°14.905 2°54.958 -999 3.615776 30.845636 -2.871232
2006-11-22 07:35:10 51°15.108 2°54.895 -999 3.757612 32.072423 -2.871232
2006-11-22 07:36:10 51°15.29 2°54.742 -999 3.779268 32.222647 -2.871232
2006-11-22 07:37:10 51°15.48 2°54.581 -999 3.784864 32.213062 -2.871232
2006-11-22 07:38:10 51°15.669 2°54.406 -999 3.796677 32.265553 -2.871232
2006-11-22 07:39:10 51°15.841 2°54.184 -999 3.827145 32.480529 -2.871232
2006-11-22 07:40:10 51°16.007 2°53.958 -999 3.831601 32.520233 -2.871232
2006-11-22 07:41:10 51°16.174 2°53.73 -999 3.82445 32.49213 -2.871232
2006-11-22 07:42:10 51°16.343 2°53.511 -999 3.827248 32.496015 -2.871232
2006-11-22 07:43:10 51°16.51 2°53.298 -999 3.832015 32.487095 -2.871232
2006-11-22 07:44:10 51°16.681 2°53.097 -999 3.851292 32.593295 -2.871232
2006-11-22 07:45:10 51°16.849 2°52.898 -999 3.866942 32.696446 -2.871232
2006-11-22 07:46:10 51°17.015 2°52.702 -999 3.867252 32.662304 -2.871232
2006-11-22 07:47:10 51°17.205 2°52.58 -999 3.876891 32.694206 -2.871232
2006-11-22 07:48:10 51°17.404 2°52.513 -999 3.88881 32.753864 -2.871232
2006-11-22 07:49:10 51°17.609 2°52.482 -999 3.883316 32.675831 -2.871232
2006-11-22 07:50:10 51°17.814 2°52.456 -999 3.878859 32.644461 135.202477
2006-11-22 07:51:10 51°18.006 2°52.535 -999 3.902389 32.888611 -2.871232
2006-11-22 07:52:10 51°18.174 2°52.726 -999 3.904255 32.91584 -2.871232
2006-11-22 07:53:10 51°18.327 2°52.949 -999 3.903633 32.915658 -2.871232
2006-11-22 07:54:10 51°18.479 2°53.18 -999 3.902286 32.911892 -2.871232
2006-11-22 07:55:10 51°18.636 2°53.401 -999 3.904359 32.936239 -2.871232
2006-11-22 07:56:10 51°18.794 2°53.616 -999 3.905188 32.946466 -2.871232
2006-11-22 07:57:10 51°18.951 2°53.826 -999 3.903322 32.937832 -2.871232
2006-11-22 07:58:11 51°19.11 2°54.042 -999 3.903115 32.935882 -2.871232
2006-11-22 07:59:10 51°19.256 2°54.26 -999 3.897829 32.890214 -2.871232
2006-11-22 08:00:10 51°19.411 2°54.473 -999 3.900524 32.918799 -2.871232
2006-11-22 08:01:10 51°19.577 2°54.665 -999 3.899902 32.912949 -2.871232
2006-11-22 08:02:10 51°19.743 2°54.855 -999 3.892957 32.849253 -2.871232
2006-11-22 08:03:10 51°19.907 2°55.052 -999 3.894719 32.867441 -2.871232
2006-11-22 08:04:09 51°20.071 2°55.244 -999 3.895548 32.877667 -2.871232
2006-11-22 08:05:10 51°20.236 2°55.445 -999 3.897414 32.909793 -2.871232
2006-11-22 08:06:10 51°20.402 2°55.643 -999 3.896896 32.91383 -2.871232
2006-11-22 08:07:10 51°20.561 2°55.852 -999 3.888086 32.834954 -2.871232
2006-11-22 08:08:10 51°20.713 2°56.068 -999 3.89275 32.890194 -2.871232
2006-11-22 08:09:10 51°20.869 2°56.281 -999 3.884459 32.855842 -2.871232
2006-11-22 08:10:10 51°21.027 2°56.5 -999 3.872954 32.832485 -2.871232
2006-11-22 08:11:10 51°21.184 2°56.715 -999 3.876582 32.848063 -2.871232
2006-11-22 08:12:10 51°21.342 2°56.929 -999 3.876582 32.831017 -2.871232
2006-11-22 08:13:10 51°21.487 2°57.157 -999 3.822069 32.612113 -2.871232
2006-11-22 08:14:10 51°21.636 2°57.386 -999 3.79958 32.441404 -2.871232
2006-11-22 08:15:10 51°21.776 2°57.621 -999 3.799684 32.457793 -2.871232
2006-11-22 08:16:10 51°21.85 2°57.836 -999 3.799685 32.473213 -2.871232
2006-11-22 08:17:10 51°21.854 2°57.954 -999 3.798027 32.467989 -2.871232
2006-11-22 08:18:10 51°21.862 2°58.011 -999 3.796472 32.44589 -2.871232
2006-11-22 08:19:10 51°21.87 2°58.037 -999 3.798441 32.464627 -2.871232
2006-11-22 08:20:10 51°21.874 2°58.048 -999 3.796058 32.452496 -2.871232
2006-11-22 08:21:10 51°21.873 2°58.047 -999 3.796887 32.466884 -2.871232
2006-11-22 08:22:10 51°21.866 2°58.047 -999 3.794192 32.432308 -2.871232
2006-11-22 08:23:10 51°21.854 2°58.044 -999 3.792638 32.436987 -2.871232
2006-11-22 08:24:10 51°21.84 2°58.043 -999 3.79212 32.432053 -2.871232
2006-11-22 08:25:10 51°21.823 2°58.042 -999 3.796991 32.476809 -2.871232
2006-11-22 08:26:10 51°21.806 2°58.041 -999 3.790773 32.418415 -2.871232
2006-11-22 08:27:10 51°21.806 2°58.046 -999 3.79554 32.467869 -2.871232
2006-11-22 08:28:10 51°21.865 2°58.067 -999 3.789529 32.400899 -2.871232
2006-11-22 08:29:10 51°21.916 2°58.137 -999 3.797612 32.478666 -2.871232
2006-11-22 08:30:10 51°21.925 2°58.226 -999 3.803934 32.518526 -2.871232
2006-11-22 08:31:10 51°21.901 2°58.284 -999 3.806939 32.547135 -2.871232
2006-11-22 08:32:10 51°21.863 2°58.306 -999 3.799063 32.476228 -2.871232
2006-11-22 08:33:10 51°21.822 2°58.299 -999 3.793052 32.438499 -2.871232
2006-11-22 08:34:10 51°21.778 2°58.272 -999 3.791913 32.434139 -2.871232
2006-11-22 08:35:10 51°21.742 2°58.234 -999 3.789322 32.416772 -2.871232
2006-11-22 08:36:10 51°21.705 2°58.191 -999 3.790462 32.426817 -2.871232
2006-11-22 08:37:10 51°21.665 2°58.137 -999 3.794296 32.455213 -2.871232
2006-11-22 08:38:10 51°21.627 2°58.079 -999 3.79782 32.483892 -2.871232
2006-11-22 08:39:10 51°21.592 2°58.029 -999 3.796472 32.464562 -2.871232
2006-11-22 08:40:10 51°21.562 2°57.982 -999 3.794918 32.454635 -2.871232
2006-11-22 08:41:10 51°21.537 2°57.934 -999 3.795022 32.463746 -2.871232
2006-11-22 08:42:10 51°21.516 2°57.868 -999 3.791809 32.4364 -2.871232
2006-11-22 08:43:10 51°21.508 2°57.801 -999 3.79212 32.442609 -2.871232
2006-11-22 08:44:10 51°21.512 2°57.763 -999 3.791705 32.437849 -2.871232
2006-11-22 08:45:10 51°21.523 2°57.75 -999 3.79098 32.426881 -2.871232
2006-11-22 08:46:10 51°21.585 2°57.751 -999 3.794192 32.447728 -2.871232
2006-11-22 08:47:10 51°21.648 2°57.761 -999 3.793882 32.449641 -2.871232
2006-11-22 08:48:10 51°21.679 2°57.747 -999 3.792845 32.435713 -2.871232
2006-11-22 08:49:10 51°21.699 2°57.7 -999 3.80155 32.5121 -2.871232
2006-11-22 08:50:10 51°21.689 2°57.627 -999 3.810463 32.574164 -2.871232
2006-11-22 08:51:10 51°21.627 2°57.604 -999 3.816577 32.611992 -2.871232
2006-11-22 08:52:10 51°21.566 2°57.709 -999 3.803415 32.512781 -2.871232
2006-11-22 08:53:10 51°21.57 2°57.842 -999 3.780513 32.319141 -2.871232
2006-11-22 08:54:10 51°21.613 2°57.891 -999 3.7944 32.455387 -2.871232
2006-11-22 08:55:10 51°21.653 2°57.963 -999 3.794089 32.456489 -2.871232
2006-11-22 08:56:10 51°21.659 2°58.03 -999 3.796162 32.476229 -2.871232
2006-11-22 08:57:10 51°21.654 2°58.086 -999 3.796058 32.472804 -2.871232
2006-11-22 08:58:10 51°21.648 2°58.144 -999 3.795747 32.473094 -2.871232
2006-11-22 08:59:10 51°21.635 2°58.215 -999 3.793571 32.449929 -2.871232
2006-11-22 09:00:10 51°21.63 2°58.279 -999 3.7887 32.417343 -2.871232
2006-11-22 09:01:10 51°21.652 2°58.317 -999 3.787871 32.424062 -2.871232
2006-11-22 09:02:10 51°21.69 2°58.311 -999 3.786628 32.415461 -2.871232
2006-11-22 09:03:10 51°21.728 2°58.265 -999 3.789944 32.440563 -2.871232
2006-11-22 09:04:10 51°21.748 2°58.19 -999 3.801343 32.50606 -2.871232
2006-11-22 09:05:10 51°21.746 2°58.11 -999 3.811395 32.569199 -2.871232
2006-11-22 09:06:10 51°21.73 2°58.037 -999 3.814918 32.588885 -2.871232
2006-11-22 09:07:11 51°21.699 2°57.957 -999 3.815644 32.594972 -2.871232
2006-11-22 09:08:10 51°21.645 2°57.899 -999 3.816473 32.597973 -2.871232
2006-11-22 09:09:10 51°21.573 2°57.869 -999 3.816991 32.60616 -2.871232
2006-11-22 09:10:10 51°21.503 2°57.894 -999 3.805799 32.523269 -2.871232
2006-11-22 09:11:10 51°21.455 2°57.966 -999 3.795332 32.455334 -2.871232
2006-11-22 09:12:10 51°21.46 2°58.045 -999 3.787353 32.402888 -2.871232
2006-11-22 09:13:10 51°21.499 2°58.082 -999 3.780617 32.354945 -2.871232
2006-11-22 09:14:11 51°21.549 2°58.104 -999 3.779063 32.335276 -2.871232
2006-11-22 09:15:10 51°21.595 2°58.132 -999 3.782483 32.36785 -2.871232
2006-11-22 09:16:10 51°21.643 2°58.168 -999 3.784348 32.388865 -2.871232
2006-11-22 09:17:10 51°21.678 2°58.238 -999 3.78269 32.377124 -2.871232
2006-11-22 09:18:10 51°21.707 2°58.32 -999 3.781032 32.369436 -2.871232
2006-11-22 09:19:10 51°21.725 2°58.41 -999 3.774504 32.319378 -2.871232
2006-11-22 09:20:10 51°21.728 2°58.51 -999 3.771395 32.298657 -2.871232
2006-11-22 09:21:10 51°21.701 2°58.607 -999 3.768079 32.274334 -2.871232
2006-11-22 09:22:10 51°21.64 2°58.664 -999 3.766836 32.26248 -2.871232
2006-11-22 09:23:10 51°21.566 2°58.652 -999 3.765696 32.252423 -2.871232
2006-11-22 09:24:10 51°21.507 2°58.595 -999 3.763727 32.240125 -2.871232
2006-11-22 09:25:10 51°21.474 2°58.553 -999 3.765903 32.259254 -2.871232
2006-11-22 09:26:10 51°21.452 2°58.539 -999 3.767354 32.271467 -2.871232
2006-11-22 09:27:10 51°21.431 2°58.533 -999 3.762276 32.222253 -2.871232
2006-11-22 09:28:10 51°21.392 2°58.483 -999 3.765281 32.253326 -2.871232
2006-11-22 09:29:11 51°21.385 2°58.386 -999 3.76466 32.250635 -2.871232
2006-11-22 09:30:10 51°21.423 2°58.306 -999 3.767147 32.27192 -2.871232
2006-11-22 09:31:10 51°21.469 2°58.229 -999 3.76725 32.269669 -2.871232
2006-11-22 09:32:10 51°21.506 2°58.17 -999 3.767354 32.26661 -2.871232
2006-11-22 09:33:10 51°21.534 2°58.135 -999 3.763001 32.221892 -2.871232
2006-11-22 09:34:10 51°21.559 2°58.104 -999 3.769426 32.286367 -2.871232
2006-11-22 09:35:10 51°21.584 2°58.074 -999 3.771188 32.300732 -2.871232
2006-11-22 09:36:10 51°21.629 2°58.083 -999 3.772535 32.313575 -2.871232
2006-11-22 09:37:10 51°21.685 2°58.107 -999 3.769426 32.289607 -2.871232
2006-11-22 09:38:10 51°21.729 2°58.125 -999 3.758857 32.20501 -2.871232
2006-11-22 09:39:11 51°21.77 2°58.123 -999 3.762276 32.241665 -2.871232
2006-11-22 09:40:10 51°21.805 2°58.103 -999 3.759479 32.220643 -2.871232
2006-11-22 09:41:10 51°21.83 2°58.061 -999 3.759064 32.222353 -2.871232
2006-11-22 09:42:10 51°21.842 2°58.009 -999 3.762795 32.255513 -2.871232
2006-11-22 09:43:10 51°21.832 2°57.945 -999 3.774089 32.334884 -2.871232
2006-11-22 09:44:10 51°21.785 2°57.885 -999 3.782275 32.350479 -2.871232
2006-11-22 09:45:10 51°21.716 2°57.857 -999 3.784244 32.371658 -2.871232
2006-11-22 09:46:10 51°21.642 2°57.864 -999 3.773467 32.315983 -2.871232
2006-11-22 09:47:10 51°21.582 2°57.867 -999 3.766525 32.274899 -2.871232
2006-11-22 09:48:10 51°21.534 2°57.869 -999 3.755852 32.178781 -2.871232
2006-11-22 09:49:10 51°21.491 2°57.879 -999 3.765903 32.273829 -2.871232
2006-11-22 09:50:10 51°21.454 2°57.913 -999 3.764245 32.249111 -2.871232
2006-11-22 09:51:10 51°21.448 2°57.978 -999 3.765799 32.263123 -2.871232
2006-11-22 09:52:10 51°21.483 2°58.036 -999 3.759686 32.208873 -2.871232
2006-11-22 09:53:10 51°21.537 2°58.067 -999 3.755437 32.179676 -2.871232
2006-11-22 09:54:10 51°21.593 2°58.094 -999 3.751085 32.155937 -2.871232
2006-11-22 09:55:10 51°21.649 2°58.12 -999 3.747666 32.136235 -2.871232
2006-11-22 09:56:10 51°21.706 2°58.152 -999 3.74435 32.111053 -2.871232
2006-11-22 09:57:10 51°21.756 2°58.202 -999 3.747355 32.13973 -2.871232
2006-11-22 09:58:10 51°21.771 2°58.296 -999 3.737926 32.07394 -2.871232
2006-11-22 09:59:10 51°21.77 2°58.404 -999 3.721141 31.953922 -2.871232
2006-11-22 10:00:10 51°21.744 2°58.503 -999 3.703424 31.815983 -2.871232
2006-11-22 10:01:10 51°21.689 2°58.544 -999 3.696689 31.769262 -2.871232
2006-11-22 10:02:10 51°21.627 2°58.534 -999 3.696689 31.766858 -2.871232
2006-11-22 10:03:10 51°21.568 2°58.47 -999 3.700834 31.800052 -2.871232
2006-11-22 10:04:10 51°21.519 2°58.386 -999 3.704045 31.823527 -2.871232
2006-11-22 10:05:10 51°21.474 2°58.296 -999 3.70819 31.8543 -2.871232
2006-11-22 10:06:10 51°21.447 2°58.21 -999 3.71192 31.885121 -2.871232
2006-11-22 10:07:10 51°21.439 2°58.125 -999 3.715028 31.907586 -2.871232
2006-11-22 10:08:11 51°21.443 2°58.047 -999 3.717722 31.922869 -2.871232
2006-11-22 10:09:11 51°21.472 2°57.974 -999 3.722799 31.960905 -2.871232
2006-11-22 10:10:10 51°21.508 2°57.962 -999 3.726321 31.985696 -2.871232
2006-11-22 10:11:10 51°21.524 2°57.956 -999 3.731709 32.026675 -2.871232
2006-11-22 10:12:10 51°21.526 2°57.953 -999 3.732538 32.032978 -2.871232
2006-11-22 10:13:10 51°21.525 2°57.955 -999 3.733056 32.039537 -2.871232
2006-11-22 10:14:10 51°21.541 2°57.895 -999 3.728705 32.007649 -2.871232
2006-11-22 10:15:10 51°21.476 2°57.862 -999 3.734196 32.050421 -2.871232
2006-11-22 10:16:10 51°21.451 2°57.957 -999 3.736786 32.054189 -2.871232
2006-11-22 10:17:10 51°21.489 2°57.986 -999 3.716375 31.901166 -2.871232
2006-11-22 10:18:10 51°21.56 2°57.982 -999 3.711298 31.871952 -2.871232
2006-11-22 10:19:10 51°21.619 2°58.033 -999 3.70218 31.800896 -2.871232
2006-11-22 10:20:11 51°21.666 2°58.08 -999 3.691198 31.716784 -2.871232
2006-11-22 10:21:10 51°21.7 2°58.137 -999 3.687572 31.687731 -2.871232
2006-11-22 10:22:11 51°21.729 2°58.201 -999 3.678973 31.611954 -2.871232
2006-11-22 10:23:10 51°21.75 2°58.27 -999 3.680216 31.635008 -2.871232
2006-11-22 10:24:10 51°21.779 2°58.329 -999 3.675243 31.589075 -2.871232
2006-11-22 10:25:10 51°21.801 2°58.395 -999 3.676694 31.604533 -2.871232
2006-11-22 10:26:10 51°21.792 2°58.472 -999 3.68032 31.6352 -2.871232
2006-11-22 10:27:10 51°21.759 2°58.542 -999 3.678973 31.626318 -2.871232
2006-11-22 10:28:10 51°21.708 2°58.585 -999 3.678455 31.613386 -2.871232
2006-11-22 10:29:10 51°21.651 2°58.588 -999 3.674311 31.584948 -2.871232
2006-11-22 10:30:10 51°21.554 2°58.575 -999 3.673378 31.581618 -2.871232
2006-11-22 10:31:11 51°21.438 2°58.564 -999 3.675968 31.594411 -2.871232
2006-11-22 10:32:10 51°21.383 2°58.498 -999 3.682288 31.64443 -2.871232
2006-11-22 10:33:10 51°21.37 2°58.424 -999 3.686329 31.67665 -2.871232
2006-11-22 10:34:11 51°21.392 2°58.374 -999 3.686639 31.67962 -2.871232
2006-11-22 10:35:10 51°21.43 2°58.335 -999 3.684878 31.662791 -2.871232
2006-11-22 10:36:11 51°21.464 2°58.283 -999 3.681045 31.634945 -2.871232
2006-11-22 10:37:10 51°21.491 2°58.244 -999 3.677937 31.612425 -2.871232
2006-11-22 10:38:10 51°21.522 2°58.225 -999 3.680009 31.629834 -2.871232
2006-11-22 10:39:10 51°21.572 2°58.198 -999 3.67773 31.607254 -2.871232
2006-11-22 10:40:10 51°21.619 2°58.16 -999 3.676383 31.596776 -2.871232
2006-11-22 10:41:10 51°21.664 2°58.136 -999 3.679491 31.622489 -2.871232
2006-11-22 10:42:10 51°21.718 2°58.12 -999 3.682702 31.642801 -2.871232
2006-11-22 10:43:11 51°21.772 2°58.104 -999 3.680319 31.620833 -2.871232
2006-11-22 10:44:10 51°21.822 2°58.084 -999 3.680423 31.624217 -2.871232
2006-11-22 10:45:10 51°21.842 2°58.013 -999 3.687054 31.67479 -2.871232
2006-11-22 10:46:10 51°21.825 2°57.938 -999 3.692234 31.709089 -2.871232
2006-11-22 10:47:10 51°21.772 2°57.912 -999 3.69472 31.723242 -2.871232
2006-11-22 10:48:10 51°21.708 2°57.954 -999 3.69213 31.704903 -2.871232
2006-11-22 10:49:11 51°21.686 2°58.055 -999 3.685396 31.655761 -2.871232
2006-11-22 10:50:10 51°21.694 2°58.165 -999 3.683738 31.647111 -2.871232
2006-11-22 10:51:10 51°21.699 2°58.272 -999 3.679594 31.617893 -2.871232
2006-11-22 10:52:10 51°21.698 2°58.374 -999 3.680216 31.623035 -2.871232
2006-11-22 10:53:09 51°21.661 2°58.457 -999 3.680527 31.622813 -2.871232
2006-11-22 10:54:10 51°21.604 2°58.508 -999 3.677211 31.595924 -2.871232
2006-11-22 10:55:11 51°21.543 2°58.519 -999 3.670581 31.542933 -2.871232
2006-11-22 10:56:10 51°21.503 2°58.494 -999 3.670892 31.541922 -2.871232
2006-11-22 10:57:10 51°21.484 2°58.483 -999 3.670477 31.541943 -2.871232
2006-11-22 10:58:10 51°21.467 2°58.476 -999 3.671928 31.556598 -2.871232
2006-11-22 10:59:10 51°21.489 2°58.398 -999 3.670685 31.544719 -2.871232
2006-11-22 11:00:11 51°21.539 2°58.21 -999 3.667784 31.510642 -2.871232
2006-11-22 11:01:10 51°21.569 2°58.087 -999 3.67027 31.52405 -2.871232
2006-11-22 11:02:10 51°21.578 2°58.059 -999 3.658977 31.41545 -2.871232
2006-11-22 11:03:10 51°21.582 2°58.062 -999 3.679283 31.611733 -2.871232
2006-11-22 11:04:10 51°21.582 2°58.083 -999 3.680009 31.606701 -2.871232
2006-11-22 11:05:10 51°21.576 2°58.11 -999 3.680423 31.617835 -2.871232
2006-11-22 11:06:11 51°21.568 2°58.138 -999 3.681666 31.627318 -2.871232
2006-11-22 11:07:11 51°21.558 2°58.164 -999 3.681459 31.622148 -2.871232
2006-11-22 11:08:10 51°21.549 2°58.189 -999 3.679283 31.607746 -2.871232
2006-11-22 11:09:10 51°21.539 2°58.217 -999 3.677937 31.597272 -2.871232
2006-11-22 11:10:11 51°21.539 2°58.248 -999 3.676072 31.581053 -2.871232
2006-11-22 11:11:10 51°21.577 2°58.234 -999 3.677315 31.593726 -2.871232
2006-11-22 11:12:11 51°21.608 2°58.173 -999 3.668405 31.498298 -2.871232
2006-11-22 11:13:10 51°21.658 2°58.124 -999 3.686536 31.661058 -2.871232
2006-11-22 11:14:10 51°21.719 2°58.084 -999 3.686328 31.646313 -2.871232
2006-11-22 11:15:10 51°21.766 2°58.058 -999 3.689747 31.67177 -2.871232
2006-11-22 11:16:11 51°21.81 2°58.04 -999 3.688607 31.663285 -2.871232
2006-11-22 11:17:11 51°21.858 2°58.018 -999 3.693995 31.716317 -2.871232
2006-11-22 11:18:10 51°21.897 2°57.982 -999 3.695135 31.7264 -2.871232
2006-11-22 11:19:10 51°21.913 2°57.935 -999 3.696896 31.742419 -2.871232
2006-11-22 11:20:10 51°21.896 2°57.897 -999 3.696792 31.74063 -2.871232
2006-11-22 11:21:10 51°21.848 2°57.903 -999 3.698968 31.753405 -2.871232
2006-11-22 11:22:10 51°21.792 2°57.957 -999 3.698554 31.748649 -2.871232
2006-11-22 11:23:11 51°21.746 2°58.034 -999 3.700729 31.767021 -2.871232
2006-11-22 11:24:10 51°21.709 2°58.112 -999 3.699279 31.753973 -2.871232
2006-11-22 11:25:10 51°21.671 2°58.163 -999 3.697621 31.742146 -2.871232
2006-11-22 11:26:10 51°21.63 2°58.188 -999 3.697932 31.745913 -2.871232
2006-11-22 11:27:10 51°21.591 2°58.236 -999 3.699175 31.753784 -2.871232
2006-11-22 11:28:11 51°21.575 2°58.301 -999 3.705495 31.797308 -2.871232
2006-11-22 11:29:10 51°21.576 2°58.373 -999 3.70736 31.808702 -2.871232
2006-11-22 11:30:11 51°21.598 2°58.459 -999 3.698761 31.741831 -2.871232
2006-11-22 11:31:11 51°21.653 2°58.495 -999 3.693788 31.709544 -2.871232
2006-11-22 11:32:10 51°21.7 2°58.464 -999 3.69213 31.697712 -2.871232
2006-11-22 11:33:11 51°21.713 2°58.419 -999 3.692648 31.705055 -2.871232
2006-11-22 11:34:10 51°21.7 2°58.348 -999 3.694099 31.71411 -2.871232
2006-11-22 11:35:11 51°21.692 2°58.257 -999 3.697621 31.739747 -2.871232
2006-11-22 11:36:10 51°21.674 2°58.179 -999 3.699175 31.748985 -2.871232
2006-11-22 11:37:10 51°21.651 2°58.127 -999 3.699072 31.747996 -2.871232
2006-11-22 11:38:11 51°21.675 2°58.09 -999 3.698243 31.738486 -2.871232
2006-11-22 11:39:10 51°21.744 2°58.122 -999 3.702076 31.771877 -2.871232
2006-11-22 11:40:10 51°21.811 2°58.186 -999 3.700833 31.76001 -2.871232
2006-11-22 11:41:10 51°21.862 2°58.256 -999 3.696896 31.727229 -2.871232
2006-11-22 11:42:11 51°21.911 2°58.28 -999 3.697621 31.738148 -2.871232
2006-11-22 11:43:11 51°21.947 2°58.256 -999 3.698346 31.745871 -2.871232
2006-11-22 11:44:10 51°21.945 2°58.204 -999 3.700729 31.76222 -2.871232
2006-11-22 11:45:10 51°21.888 2°58.189 -999 3.702283 31.763456 -2.871232
2006-11-22 11:46:11 51°21.823 2°58.152 -999 3.700418 31.748858 -2.871232
2006-11-22 11:47:11 51°21.759 2°58.153 -999 3.704977 31.786761 -2.871232
2006-11-22 11:48:10 51°21.702 2°58.157 -999 3.706531 31.793589 -2.871232
2006-11-22 11:49:10 51°21.647 2°58.161 -999 3.704252 31.775042 -2.871232
2006-11-22 11:50:10 51°21.602 2°58.223 -999 3.703112 31.763369 -2.871232
2006-11-22 11:51:11 51°21.595 2°58.339 -999 3.704977 31.782761 -2.871232
2006-11-22 11:52:10 51°21.633 2°58.441 -999 3.694927 31.699658 -2.871232
2006-11-22 11:53:11 51°21.69 2°58.496 -999 3.697621 31.725361 -2.871232
2006-11-22 11:54:11 51°21.734 2°58.501 -999 3.708293 31.826413 -2.871232
2006-11-22 11:55:11 51°21.754 2°58.466 -999 3.711712 31.851837 -2.871232
2006-11-22 11:56:11 51°21.732 2°58.401 -999 3.713266 31.857851 -2.871232
2006-11-22 11:57:11 51°21.711 2°58.32 -999 3.716063 31.880538 -2.871232
2006-11-22 11:58:11 51°21.671 2°58.244 -999 3.71482 31.869475 -2.871232
2006-11-22 11:59:10 51°21.656 2°58.172 -999 3.72114 31.912934 -2.871232
2006-11-22 12:00:11 51°21.704 2°58.116 -999 3.729222 31.97236 -2.871232
2006-11-22 12:01:11 51°21.767 2°58.095 -999 3.734506 32.007483 -2.871232
2006-11-22 12:02:11 51°21.828 2°58.159 -999 3.734506 32.008287 -2.871232
2006-11-22 12:03:11 51°21.884 2°58.261 -999 3.733056 31.998474 -2.871232
2006-11-22 12:04:11 51°21.947 2°58.304 -999 3.731398 31.987487 -2.871232
2006-11-22 12:05:11 51°21.993 2°58.298 -999 3.729844 31.979094 -2.871232
2006-11-22 12:06:10 51°22.014 2°58.282 -999 3.731812 31.993853 -2.871232
2006-11-22 12:07:11 51°21.996 2°58.282 -999 3.734403 32.012125 -2.871232
2006-11-22 12:08:10 51°21.951 2°58.271 -999 3.733988 32.004955 -2.871232
2006-11-22 12:09:11 51°21.91 2°58.228 -999 3.734196 32.007736 -2.871232
2006-11-22 12:10:11 51°21.846 2°58.225 -999 3.735543 32.014951 -2.871232
2006-11-22 12:11:11 51°21.792 2°58.191 -999 3.736164 32.017662 -2.871232
2006-11-22 12:12:11 51°21.736 2°58.17 -999 3.738651 32.033327 -2.871232
2006-11-22 12:13:11 51°21.682 2°58.157 -999 3.741138 32.048183 -2.871232
2006-11-22 12:14:11 51°21.658 2°58.108 -999 3.74207 32.050635 -2.871232
2006-11-22 12:15:10 51°21.656 2°58.042 -999 3.738444 32.026526 -2.871232
2006-11-22 12:16:10 51°21.664 2°57.976 -999 3.739583 32.034977 -2.871232
2006-11-22 12:17:10 51°21.73 2°57.974 -999 3.744453 32.066104 -2.871232
2006-11-22 12:18:11 51°21.794 2°58.075 -999 3.744971 32.071041 -2.871232
2006-11-22 12:19:10 51°21.818 2°58.185 -999 3.742899 32.05934 -2.871232
2006-11-22 12:20:11 51°21.83 2°58.281 -999 3.742588 32.057182 -2.871232
2006-11-22 12:21:11 51°21.84 2°58.365 -999 3.742588 32.057182 -2.871232
2006-11-22 12:22:11 51°21.844 2°58.441 -999 3.742692 32.05656 -2.871232
2006-11-22 12:23:11 51°21.849 2°58.509 -999 3.742795 32.055133 -2.871232
2006-11-22 12:24:10 51°21.851 2°58.574 -999 3.743521 32.062851 -2.871232
2006-11-22 12:25:10 51°21.829 2°58.632 -999 3.745179 32.073016 -2.871232
2006-11-22 12:26:11 51°21.801 2°58.653 -999 3.747665 32.086247 -2.871232
2006-11-22 12:27:11 51°21.789 2°58.632 -999 3.742692 32.054146 -2.871232
2006-11-22 12:28:10 51°21.771 2°58.569 -999 3.741656 32.048294 -2.871232
2006-11-22 12:29:11 51°21.729 2°58.444 -999 3.737615 32.018625 -2.871232
2006-11-22 12:30:11 51°21.685 2°58.284 -999 3.739998 32.02767 -2.871232
2006-11-22 12:31:11 51°21.658 2°58.215 -999 3.752225 32.117602 -2.871232
2006-11-22 12:32:10 51°21.659 2°58.242 -999 3.759685 32.166898 -2.871232
2006-11-22 12:33:11 51°21.657 2°58.251 -999 3.760825 32.166466 -2.871232
2006-11-22 12:34:11 51°21.659 2°58.226 -999 3.760203 32.169413 -2.871232
2006-11-22 12:35:11 51°21.667 2°58.202 -999 3.76041 32.168968 -2.871232
2006-11-22 12:36:11 51°21.682 2°58.219 -999 3.760618 32.170135 -2.871232
2006-11-22 12:37:11 51°21.697 2°58.233 -999 3.765384 32.204223 -2.871232
2006-11-22 12:38:11 51°21.692 2°58.22 -999 3.761343 32.173816 -2.871232
2006-11-22 12:39:11 51°21.679 2°58.198 -999 3.761654 32.174357 -2.871232
2006-11-22 12:40:11 51°21.675 2°58.195 -999 3.761861 32.169077 -2.871232
2006-11-22 12:41:10 51°21.678 2°58.19 -999 3.764244 32.186118 -2.871232
2006-11-22 12:42:11 51°21.686 2°58.201 -999 3.765073 32.193201 -2.871232
2006-11-22 12:43:11 51°21.69 2°58.217 -999 3.769736 32.230317 -2.871232
2006-11-22 12:44:11 51°21.672 2°58.208 -999 3.767042 32.205486 -2.871232
2006-11-22 12:45:11 51°21.661 2°58.209 -999 3.770047 32.226014 -2.871232
2006-11-22 12:46:11 51°21.656 2°58.217 -999 3.768078 32.200836 -2.871232
2006-11-22 12:47:10 51°21.65 2°58.198 -999 3.774399 32.256123 -2.871232
2006-11-22 12:48:11 51°21.663 2°58.196 -999 3.776057 32.27028 -2.871232
2006-11-22 12:49:10 51°21.679 2°58.209 -999 3.778233 32.286943 -2.871232
2006-11-22 12:50:11 51°21.692 2°58.217 -999 3.776783 32.279604 -2.871232
2006-11-22 12:51:10 51°21.68 2°58.18 -999 3.767871 32.196448 -2.871232
2006-11-22 12:52:11 51°21.68 2°58.208 -999 3.775125 32.26383 -2.871232
2006-11-22 12:53:11 51°21.674 2°58.23 -999 3.779062 32.296445 -2.871232
2006-11-22 12:54:11 51°21.666 2°58.214 -999 3.779581 32.303799 -2.871232
2006-11-22 12:55:11 51°21.666 2°58.224 -999 3.780202 32.309714 -2.871232
2006-11-22 12:56:11 51°21.665 2°58.248 -999 3.778544 32.297172 -2.871232
2006-11-22 12:57:10 51°21.66 2°58.223 -999 3.778233 32.296639 -2.871232
2006-11-22 12:58:11 51°21.689 2°58.162 -999 3.769322 32.223146 -2.871232
2006-11-22 12:59:11 51°21.711 2°58.194 -999 3.77471 32.274423 -2.871232
2006-11-22 13:00:11 51°21.732 2°58.244 -999 3.776265 32.288409 -2.871232
2006-11-22 13:01:11 51°21.763 2°58.254 -999 3.77357 32.26196 -2.871232
2006-11-22 13:02:11 51°21.746 2°58.192 -999 3.776472 32.287148 -2.871232
2006-11-22 13:03:11 51°21.687 2°58.181 -999 3.775436 32.278095 -2.871232
2006-11-22 13:04:11 51°21.67 2°58.206 -999 3.775954 32.288683 -2.871232
2006-11-22 13:05:11 51°21.669 2°58.239 -999 3.779166 32.303896 -2.871232
2006-11-22 13:06:11 51°21.66 2°58.239 -999 3.78155 32.327385 -2.871232
2006-11-22 13:07:11 51°21.664 2°58.182 -999 3.776161 32.294698 -2.871232
2006-11-22 13:08:11 51°21.677 2°58.152 -999 3.775539 32.284738 -2.871232
2006-11-22 13:09:10 51°21.677 2°58.152 -999 3.777094 32.296299 -2.871232
2006-11-22 13:10:10 51°21.674 2°58.152 -999 3.77813 32.306971 -2.871232
2006-11-22 13:11:11 51°21.671 2°58.164 -999 3.779995 32.317445 -2.871232
2006-11-22 13:12:10 51°21.674 2°58.173 -999 3.796368 32.414914 -2.871232
2006-11-22 13:13:11 51°21.671 2°58.192 -999 3.808803 32.489336 -2.871232
2006-11-22 13:14:11 51°21.664 2°58.207 -999 3.797093 32.42262 -2.871232
2006-11-22 13:15:11 51°21.67 2°58.205 -999 3.785176 32.351378 -2.871232
2006-11-22 13:16:11 51°21.687 2°58.183 -999 3.78414 32.347992 -2.871232
2006-11-22 13:17:11 51°21.703 2°58.194 -999 3.796575 32.425795 -2.871232
2006-11-22 13:18:10 51°21.714 2°58.207 -999 3.801964 32.455146 -2.871232
2006-11-22 13:19:10 51°21.717 2°58.206 -999 3.793674 32.403873 -2.871232
2006-11-22 13:20:11 51°21.722 2°58.204 -999 3.792223 32.400604 -2.871232
2006-11-22 13:21:11 51°21.704 2°58.182 -999 3.792534 32.401131 -2.871232
2006-11-22 13:22:11 51°21.689 2°58.168 -999 3.797922 32.432933 -2.871232
2006-11-22 13:23:10 51°21.691 2°58.167 -999 3.819167 32.558551 -2.871232
2006-11-22 13:24:11 51°21.704 2°58.167 -999 3.806627 32.484873 -2.871232
2006-11-22 13:25:11 51°21.713 2°58.178 -999 3.811912 32.515623 -2.871232
2006-11-22 13:26:11 51°21.711 2°58.187 -999 3.809529 32.502713 -2.871232
2006-11-22 13:27:10 51°21.697 2°58.176 -999 3.809529 32.503524 -2.871232
2006-11-22 13:28:11 51°21.69 2°58.17 -999 3.809114 32.50283 -2.871232
2006-11-22 13:29:11 51°21.698 2°58.179 -999 3.810151 32.510243 -2.871232
2006-11-22 13:30:11 51°21.718 2°58.202 -999 3.810151 32.513488 -2.871232
2006-11-22 13:31:10 51°21.741 2°58.203 -999 3.812016 32.523909 -2.871232
2006-11-22 13:32:11 51°21.762 2°58.146 -999 3.817301 32.553012 -2.871232
2006-11-22 13:33:10 51°21.77 2°58.128 -999 3.815643 32.542134 -2.871232
2006-11-22 13:34:11 51°21.768 2°58.143 -999 3.821136 32.575622 -2.871232
2006-11-22 13:35:11 51°21.771 2°58.157 -999 3.828701 32.622256 -2.871232
2006-11-22 13:36:11 51°21.775 2°58.169 -999 3.831085 32.63675 -2.871232
2006-11-22 13:37:11 51°21.766 2°58.171 -999 3.83637 32.664948 -2.837523
2006-11-22 13:38:11 51°21.744 2°58.127 -999 3.842588 32.709282 -2.871232
2006-11-22 13:39:11 51°21.743 2°58.116 -999 3.849117 32.743516 -2.871232
2006-11-22 13:40:11 51°21.747 2°58.126 -999 3.857098 32.781688 -2.871232
2006-11-22 13:41:11 51°21.746 2°58.152 -999 3.860932 32.800907 -2.871232
2006-11-22 13:42:11 51°21.742 2°58.165 -999 3.860518 32.797796 -2.871232
2006-11-22 13:43:10 51°21.743 2°58.114 -999 3.859274 32.799856 -2.871232
2006-11-22 13:44:11 51°21.762 2°58.113 -999 3.862798 32.818566 -2.871232
2006-11-22 13:45:11 51°21.779 2°58.117 -999 3.864145 32.827249 -2.871232
2006-11-22 13:46:11 51°21.788 2°58.13 -999 3.866011 32.834322 -2.871232
2006-11-22 13:47:11 51°21.781 2°58.137 -999 3.868084 32.842539 -2.871232
2006-11-22 13:48:11 51°21.682 2°58.011 -999 3.866529 32.821324 -2.871232
2006-11-22 13:49:10 51°21.559 2°57.836 -999 3.841861 32.558302 -2.871232
2006-11-22 13:50:10 51°21.476 2°57.638 -999 3.867979 32.784685 -2.871232
2006-11-22 13:51:10 51°21.441 2°57.521 -999 3.877101 32.89118 -2.871232
2006-11-22 13:52:10 51°21.453 2°57.486 -999 3.876479 32.888558 -2.871232
2006-11-22 13:53:11 51°21.465 2°57.468 -999 3.87793 32.890876 -2.871232
2006-11-22 13:54:11 51°21.454 2°57.469 -999 3.880625 32.900876 -2.871232
2006-11-22 13:55:11 51°21.453 2°57.474 -999 3.879795 32.897925 -2.871232
2006-11-22 13:56:11 51°21.454 2°57.485 -999 3.879174 32.895305 -2.871232
2006-11-22 13:57:11 51°21.447 2°57.497 -999 3.878759 32.891387 -2.871232
2006-11-22 13:58:11 51°21.442 2°57.491 -999 3.875546 32.884624 -2.871232
2006-11-22 13:59:10 51°21.441 2°57.495 -999 3.875028 32.882167 -2.871232
2006-11-22 14:00:10 51°21.435 2°57.491 -999 3.874302 32.881006 -2.871232
2006-11-22 14:01:11 51°21.429 2°57.482 -999 3.874095 32.876603 -2.871232
2006-11-22 14:02:10 51°21.436 2°57.482 -999 3.873473 32.869908 -2.871232
2006-11-22 14:03:11 51°21.445 2°57.492 -999 3.874302 32.877749 -2.871232
2006-11-22 14:04:11 51°21.445 2°57.509 -999 3.874095 32.875789 -2.871232
2006-11-22 14:05:11 51°21.445 2°57.491 -999 3.87451 32.876452 -2.871232
2006-11-22 14:06:11 51°21.468 2°57.407 -999 3.874095 32.871718 -2.871232
2006-11-22 14:07:10 51°21.489 2°57.407 -999 3.87565 32.881533 -2.871232
2006-11-22 14:08:10 51°21.504 2°57.415 -999 3.87679 32.887426 -2.871232
2006-11-22 14:09:11 51°21.502 2°57.432 -999 3.877826 32.889083 -2.871232
2006-11-22 14:10:11 51°21.499 2°57.447 -999 3.877723 32.886475 -2.871232
2006-11-22 14:11:11 51°21.493 2°57.43 -999 3.87565 32.876649 -2.871232
2006-11-22 14:12:11 51°21.488 2°57.394 -999 3.876064 32.880568 -2.871232
2006-11-22 14:13:11 51°21.486 2°57.378 -999 3.876479 32.880417 -2.871232
2006-11-22 14:14:09 51°21.491 2°57.38 -999 3.876168 32.878292 -2.871232
2006-11-22 14:15:11 51°21.497 2°57.377 -999 3.875546 32.873228 -2.871232
2006-11-22 14:16:11 51°21.503 2°57.371 -999 3.875028 32.86833 -2.871232
2006-11-22 14:17:11 51°21.511 2°57.36 -999 3.876272 32.877644 -2.871232
2006-11-22 14:18:11 51°21.524 2°57.356 -999 3.875857 32.875353 -2.871232
2006-11-22 14:19:11 51°21.54 2°57.359 -999 3.876479 32.880417 -2.871232
2006-11-22 14:20:11 51°21.543 2°57.367 -999 3.876064 32.874058 -2.871232
2006-11-22 14:21:11 51°21.542 2°57.387 -999 3.877723 32.887289 -2.871232
2006-11-22 14:22:10 51°21.528 2°57.379 -999 3.876064 32.874058 -2.871232
2006-11-22 14:23:11 51°21.526 2°57.369 -999 3.877101 32.883039 -2.871232
2006-11-22 14:24:11 51°21.535 2°57.371 -999 3.877204 32.87751 -2.871232
2006-11-22 14:25:11 51°21.541 2°57.39 -999 3.877412 32.883537 -2.871232
2006-11-22 14:26:10 51°21.498 2°57.448 -999 3.87679 32.875219 -2.871232
2006-11-22 14:27:11 51°21.466 2°57.453 -999 3.87793 32.874604 -2.871232
2006-11-22 14:28:11 51°21.478 2°57.466 -999 3.878033 32.878023 -2.871232
2006-11-22 14:29:11 51°21.528 2°57.412 -999 3.877619 32.87492 -2.871232
2006-11-22 14:30:10 51°21.682 2°57.485 -999 3.878241 32.875915 -2.871232
2006-11-22 14:31:11 51°21.858 2°57.667 -999 3.878344 32.875268 -2.871232
2006-11-22 14:32:10 51°22.009 2°57.889 -999 3.88477 32.900172 -2.871232
2006-11-22 14:33:10 51°22.153 2°58.138 -999 3.889849 32.913146 -2.871232
2006-11-22 14:34:11 51°22.311 2°58.372 -999 3.894928 32.951285 -2.871232
2006-11-22 14:35:11 51°22.471 2°58.524 -999 3.888398 32.932785 -2.871232
2006-11-22 14:36:10 51°22.587 2°58.627 -999 3.885911 32.925575 -2.871232
2006-11-22 14:37:11 51°22.672 2°58.708 -999 3.890471 32.946655 -2.871232
2006-11-22 14:38:11 51°22.699 2°58.752 -999 3.89358 32.949961 -2.871232
2006-11-22 14:39:11 51°22.742 2°58.78 -999 3.895135 32.960558 -2.871232
2006-11-22 14:40:12 51°22.768 2°58.828 -999 3.897519 32.970026 -2.871232
2006-11-22 14:41:11 51°22.804 2°58.839 -999 3.897001 32.963513 -2.871232
2006-11-22 14:42:10 51°22.809 2°58.789 -999 3.899488 32.96989 -2.871232
2006-11-22 14:43:10 51°22.766 2°58.747 -999 3.900835 32.96471 -2.871232
2006-11-22 14:44:11 51°22.705 2°58.712 -999 3.90011 32.961125 -2.871232
2006-11-22 14:45:11 51°22.702 2°58.698 -999 3.898763 32.963865 -2.871232
2006-11-22 14:46:10 51°22.711 2°58.694 -999 3.898659 32.976709 -2.871232
2006-11-22 14:47:11 51°22.712 2°58.715 -999 3.898244 32.963044 -2.871232
2006-11-22 14:48:11 51°22.711 2°58.747 -999 3.898348 32.961583 -2.871232
2006-11-22 14:49:11 51°22.705 2°58.749 -999 3.896586 32.959605 -2.871232
2006-11-22 14:50:12 51°22.622 2°58.775 -999 3.893788 32.95273 -2.871232
2006-11-22 14:51:10 51°22.505 2°58.924 -999 3.888191 32.93327 -2.871232
2006-11-22 14:52:10 51°22.374 2°59.086 -999 3.888605 32.915227 -2.871232
2006-11-22 14:53:11 51°22.256 2°59.252 -999 3.877619 32.880614 -2.871232
2006-11-22 14:54:10 51°22.179 2°59.285 -999 3.867151 32.83697 -2.871232
2006-11-22 14:55:10 51°22.129 2°59.301 -999 3.865907 32.819509 -2.871232
2006-11-22 14:56:11 51°22.1 2°59.285 -999 3.867462 32.817137 -2.871232
2006-11-22 14:57:11 51°22.108 2°59.277 -999 3.869742 32.821624 -2.871232
2006-11-22 14:58:10 51°22.122 2°59.268 -999 3.863523 32.755565 -2.871232
2006-11-22 14:59:11 51°22.126 2°59.267 -999 3.871193 32.832087 -2.871232
2006-11-22 15:00:11 51°22.128 2°59.278 -999 3.870985 32.829315 -2.871232
2006-11-22 15:01:11 51°22.129 2°59.302 -999 3.871504 32.830962 -2.871232
2006-11-22 15:02:11 51°22.135 2°59.333 -999 3.872333 32.832296 -2.871232
2006-11-22 15:03:11 51°22.143 2°59.365 -999 3.872644 32.831984 -2.871232
2006-11-22 15:04:11 51°22.151 2°59.398 -999 3.87254 32.831005 -2.871232
2006-11-22 15:05:10 51°22.151 2°59.43 -999 3.872747 32.831339 -2.871232
2006-11-22 15:06:11 51°22.106 2°59.38 -999 3.87254 32.828569 -2.871232
2006-11-22 15:07:10 51°22.072 2°59.238 -999 3.873473 32.831694 -2.871232
2006-11-22 15:08:11 51°22.017 2°59.097 -999 3.876893 32.846127 -2.871232
2006-11-22 15:09:11 51°21.993 2°58.99 -999 3.881557 32.862543 -2.871232
2006-11-22 15:10:11 51°22.012 2°58.923 -999 3.883008 32.868115 -2.871232
2006-11-22 15:11:11 51°22.029 2°58.907 -999 3.883422 32.869591 -2.871232
2006-11-22 15:12:10 51°22.042 2°58.899 -999 3.883111 32.868281 -2.871232
2006-11-22 15:13:11 51°22.052 2°58.896 -999 3.882904 32.867137 -2.871232
2006-11-22 15:14:11 51°22.047 2°58.901 -999 3.883827 -999 -2.871232
2006-11-22 15:15:11 51°21.952 2°58.86 -999 3.885288 32.873391 -2.871232
2006-11-22 15:16:11 51°21.845 2°58.716 -999 3.889745 32.883767 -2.871232
2006-11-22 15:17:11 51°21.728 2°58.483 -999 3.892854 32.89117 -2.871232
2006-11-22 15:18:11 51°21.624 2°58.213 -999 3.894823 32.898367 -2.871232
2006-11-22 15:19:10 51°21.555 2°57.918 -999 3.897311 32.917732 -2.871232
2006-11-22 15:20:10 51°21.49 2°57.649 -999 3.897415 32.92033 -2.871232
2006-11-22 15:21:10 51°21.453 2°57.523 -999 3.896896 32.919504 -2.871232
2006-11-22 15:22:11 51°21.453 2°57.495 -999 3.896896 32.916261 -2.871232
2006-11-22 15:23:11 51°21.466 2°57.489 -999 3.897104 32.920645 -2.871232
2006-11-22 15:24:10 51°21.475 2°57.484 -999 3.894098 32.893157 -2.871232
2006-11-22 15:25:10 51°21.488 2°57.488 -999 3.89389 32.894447 -2.871232
2006-11-22 15:26:11 51°21.504 2°57.492 -999 3.89389 32.892016 -2.871232
2006-11-22 15:27:11 51°21.522 2°57.497 -999 3.896793 32.913664 -2.871232
2006-11-22 15:28:10 51°21.539 2°57.498 -999 3.897622 32.918228 -2.871232
2006-11-22 15:29:11 51°21.551 2°57.497 -999 3.897415 32.918708 -2.871232
2006-11-22 15:30:10 51°21.557 2°57.502 -999 3.896378 32.915436 -2.871232
2006-11-22 15:31:11 51°21.563 2°57.53 -999 3.897104 32.9247 -2.871232
2006-11-22 15:32:10 51°21.57 2°57.628 -999 3.897104 32.923078 -2.871232
2006-11-22 15:33:10 51°21.504 2°57.685 -999 3.896793 32.910423 -2.871232
2006-11-22 15:34:10 51°21.44 2°57.533 -999 3.896689 32.912689 -2.871232
2006-11-22 15:35:10 51°21.338 2°57.397 -999 3.898762 32.927339 -2.871232
2006-11-22 15:36:10 51°21.242 2°57.255 -999 3.898347 32.917762 -2.871232
2006-11-22 15:37:11 51°21.166 2°57.139 -999 3.898658 32.918258 -2.871232
2006-11-22 15:38:10 51°21.102 2°57.035 -999 3.900213 32.927215 -2.871232
2006-11-22 15:39:10 51°21.038 2°56.933 -999 3.900524 32.922849 -2.871232
2006-11-22 15:40:10 51°20.977 2°56.829 -999 3.901975 32.928398 -2.871232
2006-11-22 15:41:11 51°20.914 2°56.728 -999 3.903944 32.93639 -2.871232
2006-11-22 15:42:11 51°20.851 2°56.628 -999 3.904462 32.930735 -2.871232
2006-11-22 15:43:10 51°20.791 2°56.528 -999 3.90581 32.932069 -2.871232
2006-11-22 15:44:10 51°20.728 2°56.427 -999 3.906535 32.925942 -2.871232
2006-11-22 15:45:10 51°20.665 2°56.323 -999 3.907468 32.925809 -2.871232
2006-11-22 15:46:10 51°20.601 2°56.217 -999 3.91037 32.940935 -2.871232
2006-11-22 15:47:10 51°20.537 2°56.111 -999 3.913583 32.950888 -2.871232
2006-11-22 15:48:11 51°20.474 2°56.004 -999 3.914413 32.9417 -2.871232
2006-11-22 15:49:10 51°20.412 2°55.903 -999 3.914205 32.922804 -2.871232
2006-11-22 15:50:11 51°20.348 2°55.794 -999 3.915138 32.910583 -2.871232
2006-11-22 15:51:11 51°20.285 2°55.69 -999 3.915552 32.893525 -2.871232
2006-11-22 15:52:10 51°20.225 2°55.586 -999 3.917314 32.893122 -2.871232
2006-11-22 15:53:10 51°20.163 2°55.482 -999 3.916692 32.88328 -2.871232
2006-11-22 15:54:10 51°20.101 2°55.374 -999 3.915863 32.87954 -2.871232
2006-11-22 15:55:11 51°20.037 2°55.265 -999 3.914101 32.874305 -2.871232
2006-11-22 15:56:10 51°19.973 2°55.157 -999 3.912442 32.865213 -2.871232
2006-11-22 15:57:11 51°19.908 2°55.045 -999 3.911613 32.862274 -2.871232
2006-11-22 15:58:11 51°19.845 2°54.933 -999 3.911095 32.851792 -2.871232
2006-11-22 15:59:11 51°19.782 2°54.821 -999 3.91182 32.846529 -2.871232
2006-11-22 16:00:10 51°19.719 2°54.716 -999 3.913686 32.851134 -2.871232
2006-11-22 16:01:11 51°19.656 2°54.603 -999 3.914515 32.84524 -2.871232
2006-11-22 16:02:10 51°19.593 2°54.491 -999 3.914515 32.833203 -2.871232
2006-11-22 16:03:11 51°19.529 2°54.376 -999 3.917106 32.846196 -2.871232
2006-11-22 16:04:11 51°19.465 2°54.265 -999 3.917417 32.837073 -2.871232
2006-11-22 16:05:10 51°19.403 2°54.156 -999 3.917313 32.829693 -2.871232
2006-11-22 16:06:11 51°19.335 2°54.05 -999 3.916898 32.819412 -2.871232
2006-11-22 16:07:11 51°19.269 2°53.944 -999 3.918971 32.832365 -2.871232
2006-11-22 16:08:10 51°19.204 2°53.839 -999 3.917106 32.820547 -2.871232
2006-11-22 16:09:10 51°19.139 2°53.731 -999 3.918971 32.838774 -2.871232
2006-11-22 16:10:11 51°19.071 2°53.622 -999 3.917417 32.84028 -2.871232
2006-11-22 16:11:10 51°19.003 2°53.52 -999 3.915344 32.84256 -2.871232
2006-11-22 16:12:11 51°18.934 2°53.415 -999 3.90985 32.807233 -2.871232
2006-11-22 16:13:11 51°18.867 2°53.315 -999 3.908606 32.801213 -2.871232
2006-11-22 16:14:10 51°18.8 2°53.212 -999 3.913064 32.855759 -2.871232
2006-11-22 16:15:10 51°18.73 2°53.115 -999 3.911716 32.856007 -2.871232
2006-11-22 16:16:10 51°18.654 2°53.031 -999 3.910576 32.85498 -2.871232
2006-11-22 16:17:10 51°18.575 2°52.953 -999 3.909954 32.854786 -2.871232
2006-11-22 16:18:10 51°18.493 2°52.882 -999 3.909436 32.856367 -2.871232
2006-11-22 16:19:10 51°18.411 2°52.811 -999 3.908193 32.860809 -2.871232
2006-11-22 16:20:11 51°18.328 2°52.736 -999 3.907985 32.858061 -2.871232
2006-11-22 16:21:11 51°18.244 2°52.667 -999 3.907985 32.857256 -2.871232
2006-11-22 16:22:11 51°18.148 2°52.616 -999 3.907363 32.861089 -2.871232
2006-11-22 16:23:11 51°18.028 2°52.583 -999 3.907571 32.857396 -2.871232
2006-11-22 16:24:10 51°17.906 2°52.56 -999 3.9084 32.855508 -2.871232
2006-11-22 16:25:11 51°17.777 2°52.535 -999 3.909436 32.853149 -2.871232
2006-11-22 16:26:11 51°17.651 2°52.502 -999 3.909125 32.855868 -2.871232
2006-11-22 16:27:11 51°17.525 2°52.469 -999 3.907882 32.868364 -2.871232
2006-11-22 16:28:11 51°17.399 2°52.436 -999 3.906016 32.874239 -2.871232
2006-11-22 16:29:11 51°17.272 2°52.405 -999 3.904773 32.882734 -2.871232
2006-11-22 16:30:10 51°17.148 2°52.384 -999 3.901041 32.860617 -2.871232
2006-11-22 16:31:10 51°17.043 2°52.481 -999 3.900212 32.827042 -2.871232
2006-11-22 16:32:11 51°16.926 2°52.561 -999 3.900418 32.787967 -2.871232
2006-11-22 16:33:11 51°16.802 2°52.625 -999 3.900107 32.787464 -2.871232
2006-11-22 16:34:11 51°16.674 2°52.692 -999 3.898035 32.792949 -2.871232
2006-11-22 16:35:11 51°16.538 2°52.763 -999 3.897724 32.78923 -2.871232
2006-11-22 16:36:10 51°16.401 2°52.83 -999 3.896065 32.795395 -2.871232
2006-11-22 16:37:11 51°16.258 2°52.899 -999 3.892542 32.812257 -2.871232
2006-11-22 16:38:11 51°16.117 2°52.965 -999 3.886945 32.798376 -2.871232
2006-11-22 16:39:11 51°15.975 2°53.03 -999 3.884976 32.797615 -2.871232
2006-11-22 16:40:10 51°15.837 2°53.095 -999 3.881037 32.785589 -2.871232
2006-11-22 16:41:11 51°15.706 2°53.156 -999 3.883525 32.784772 -2.871232
2006-11-22 16:42:10 51°15.584 2°53.211 -999 3.884043 32.778348 -2.871232
2006-11-22 16:43:11 51°15.461 2°53.272 -999 3.883317 32.759431 -2.871232
2006-11-22 16:44:10 51°15.352 2°53.367 -999 3.882695 32.746334 -2.871232
2006-11-22 16:45:10 51°15.224 2°53.498 -999 3.88197 32.736295 -2.871232
2006-11-22 16:46:11 51°15.076 2°53.672 -999 3.88114 32.738971 -2.871232
2006-11-22 16:47:11 51°14.932 2°53.872 -999 3.87429 -999 -2.871232
2006-11-22 16:48:11 51°14.784 2°54.095 -999 3.846836 32.650525 -2.871232
2006-11-22 16:49:10 51°14.648 2°54.357 -999 3.70881 31.761785 -2.871232
2006-11-22 16:50:11 51°14.511 2°54.631 -999 3.645304 31.366468 -2.871232
2006-11-22 16:51:11 51°14.4 2°54.918 -999 3.687573 31.745397 -2.871232
2006-11-22 16:52:11 51°14.295 2°55.19 -999 3.59993 30.912623 -2.871232
2006-11-22 16:53:09 51°14.196 2°55.349 -999 3.417553 29.176093 -2.871232
2006-11-22 16:54:10 51°14.095 2°55.437 -999 3.432153 29.320213 -2.871232
2006-11-22 16:55:10 51°14.009 2°55.499 -999 3.334726 28.388018 -2.871232
2006-11-22 16:56:10 51°13.928 2°55.558 -999 3.305015 28.10672 -2.871232
2006-11-22 16:57:12 51°13.843 2°55.617 -999 3.388872 28.866248 -2.871232
2006-11-22 16:58:13 51°13.768 2°55.691 -999 3.073508 25.971974 -2.871232
2006-11-22 16:59:13 51°13.711 2°55.785 -999 3.076612 25.99437 -2.871232
2006-11-22 17:00:15 51°13.662 2°55.892 -999 3.173671 26.844105 -2.871232
2006-11-22 17:01:15 51°13.627 2°55.996 -999 3.137866 26.512995 -2.871232
2006-11-22 17:02:15 51°13.603 2°56.079 -999 3.14749 26.592798 -2.871232